Terminal Aerodrome Forecast
Issued by NWS Nashville, TN

Home | Current Version | Previous Version | Text Only | Print | Product List | Glossary On
Versions: 1 2 3 4 5 6 7 8 9 10 11 12 13 14 15 16
073
FTUS44 KOHX 272325
TAFCSV
TAF
KCSV 272325Z 2800/2824 23004KT P6SM SCT040 BKN060
     FM280900 21003KT 5SM BR VCSH BKN025 OVC050
     FM281400 22006KT 4SM -SHRA BR BKN007 OVC015
     FM282000 21008KT 2SM TSRA OVC007CB=

USA.gov is the U.S. government's official web portal to all federal, state and local government web resources and services.